createdAt,value
2023-01-20T00:01:31.148Z,63.40
2023-01-20T00:03:59.857Z,64.57
2023-01-20T00:06:29.675Z,62.72
2023-01-20T00:09:01.572Z,69.65
2023-01-20T00:11:30.998Z,66.57
2023-01-20T00:14:00.968Z,63.15
2023-01-20T00:16:32.099Z,66.70
2023-01-20T00:19:00.513Z,69.50
2023-01-20T00:21:28.873Z,66.60
2023-01-20T00:23:57.997Z,68.95
2023-01-20T00:26:27.790Z,73.18
2023-01-20T00:28:57.743Z,72.03
2023-01-20T00:31:28.521Z,69.30
2023-01-20T00:33:58.606Z,66.20
2023-01-20T00:36:28.560Z,65.38
2023-01-20T00:38:57.011Z,65.20
2023-01-20T00:41:25.422Z,66.88
2023-01-20T00:43:55.242Z,67.53
2023-01-20T00:46:24.195Z,69.50
2023-01-20T00:48:52.465Z,66.32
2023-01-20T00:51:21.044Z,63.58
2023-01-20T00:53:49.443Z,66.63
2023-01-20T00:56:17.777Z,68.53
2023-01-20T00:58:46.452Z,68.18
2023-01-20T01:01:16.372Z,66.07
2023-01-20T01:03:45.573Z,69.57
2023-01-20T01:06:16.177Z,71.85
2023-01-20T01:08:45.754Z,74.75
2023-01-20T01:11:15.351Z,73.07
2023-01-20T01:13:43.866Z,64.78
2023-01-20T01:16:14.535Z,68.72
2023-01-20T01:18:44.930Z,67.25
2023-01-20T01:21:16.820Z,68.38
2023-01-20T01:23:45.645Z,66.03
2023-01-20T01:26:14.672Z,68.95
2023-01-20T01:28:43.280Z,67.70
2023-01-20T01:31:11.919Z,63.67
2023-01-20T01:33:41.000Z,60.95
2023-01-20T01:36:14.758Z,64.57
2023-01-20T01:38:43.384Z,58.65
2023-01-20T01:41:13.753Z,63.60
2023-01-20T01:43:57.476Z,63.17
2023-01-20T01:46:25.732Z,64.00
2023-01-20T01:48:54.604Z,60.92
2023-01-20T01:51:28.644Z,57.88
2023-01-20T01:54:01.403Z,62.13
2023-01-20T01:56:31.465Z,58.50
2023-01-20T01:59:02.945Z,54.55
2023-01-20T02:01:33.324Z,54.85
2023-01-20T02:04:05.432Z,58.80
2023-01-20T02:06:39.828Z,56.95
2023-01-20T02:09:08.250Z,55.72
2023-01-20T02:11:41.768Z,62.90
2023-01-20T02:14:10.745Z,56.17
2023-01-20T02:16:46.188Z,54.83
2023-01-20T02:19:48.284Z,56.25
2023-01-20T02:22:27.247Z,52.95
2023-01-20T02:25:18.187Z,57.17
2023-01-20T02:28:40.314Z,54.85
2023-01-20T02:31:28.375Z,49.85
2023-01-20T02:34:02.278Z,50.70
2023-01-20T02:36:35.551Z,56.03
2023-01-20T02:39:12.844Z,54.15
2023-01-20T02:42:00.035Z,54.00
2023-01-20T02:44:34.007Z,52.95
2023-01-20T02:47:08.601Z,51.17
2023-01-20T02:49:43.284Z,48.47
2023-01-20T02:52:14.677Z,51.10
2023-01-20T02:54:47.598Z,51.15
2023-01-20T02:57:19.058Z,52.85
2023-01-20T02:59:52.530Z,50.97
2023-01-20T03:02:23.992Z,51.22
2023-01-20T03:04:59.266Z,47.15
2023-01-20T03:07:30.281Z,48.90
2023-01-20T03:10:03.006Z,54.28
2023-01-20T03:12:37.348Z,49.80
2023-01-20T03:15:07.484Z,50.30
2023-01-20T03:17:36.459Z,46.58
2023-01-20T03:20:07.258Z,51.13
2023-01-20T03:22:35.611Z,45.25
2023-01-20T03:25:05.698Z,48.40
2023-01-20T03:27:34.329Z,47.63
2023-01-20T03:30:02.815Z,47.63
2023-01-20T03:32:32.260Z,46.55
2023-01-20T03:35:01.175Z,49.85
2023-01-20T03:37:31.106Z,49.58
2023-01-20T03:39:59.649Z,46.75
2023-01-20T03:42:35.220Z,45.00
2023-01-20T03:45:10.131Z,47.42
2023-01-20T03:47:50.160Z,46.20
2023-01-20T03:50:30.274Z,46.47
2023-01-20T03:53:06.924Z,53.97
2023-01-20T03:55:38.996Z,52.78
2023-01-20T03:58:10.830Z,50.38
2023-01-20T04:00:43.671Z,48.88
2023-01-20T04:03:16.437Z,50.53
2023-01-20T04:05:47.409Z,49.17
2023-01-20T04:08:19.472Z,49.30
2023-01-20T04:10:51.267Z,52.83
2023-01-20T04:13:19.520Z,48.67
2023-01-20T04:15:48.636Z,50.40
2023-01-20T04:18:18.453Z,53.13
2023-01-20T04:20:49.618Z,51.75
2023-01-20T04:23:27.184Z,55.03
2023-01-20T04:25:55.611Z,54.38
2023-01-20T04:28:23.826Z,55.00
2023-01-20T04:30:52.153Z,57.67
2023-01-20T04:33:20.978Z,56.50
2023-01-20T04:35:49.370Z,57.53
2023-01-20T04:38:19.085Z,59.28
2023-01-20T04:40:47.882Z,57.15
2023-01-20T04:43:16.939Z,53.55
2023-01-20T04:45:45.276Z,60.72
2023-01-20T04:48:13.892Z,58.35
2023-01-20T04:50:42.453Z,54.30
2023-01-20T04:53:13.872Z,56.83
2023-01-20T04:55:44.016Z,59.67
2023-01-20T04:58:12.226Z,55.33
2023-01-20T05:00:41.460Z,55.92
2023-01-20T05:03:11.592Z,57.55
2023-01-20T05:05:39.899Z,61.45
2023-01-20T05:08:08.127Z,55.20
2023-01-20T05:10:36.807Z,57.17
2023-01-20T05:13:06.648Z,54.03
2023-01-20T05:15:34.917Z,53.42
2023-01-20T05:18:03.247Z,51.28
2023-01-20T05:20:31.429Z,56.72
2023-01-20T05:23:01.376Z,57.47
2023-01-20T05:25:30.404Z,55.20
2023-01-20T05:28:00.465Z,52.75
2023-01-20T05:30:30.400Z,61.22
2023-01-20T05:32:58.847Z,56.05
2023-01-20T05:35:27.267Z,57.80
2023-01-20T05:37:56.019Z,54.38
2023-01-20T05:40:24.512Z,55.13
2023-01-20T05:42:52.701Z,52.75
2023-01-20T05:45:21.080Z,51.08
2023-01-20T05:47:56.429Z,51.78
2023-01-20T05:50:24.862Z,56.30
2023-01-20T05:52:53.159Z,50.70
2023-01-20T05:55:22.360Z,52.28
2023-01-20T05:57:50.643Z,53.42
2023-01-20T06:00:19.937Z,53.67
2023-01-20T06:02:48.276Z,46.85
2023-01-20T06:05:18.352Z,47.75
2023-01-20T06:07:46.601Z,47.72
2023-01-20T06:10:15.002Z,45.38
2023-01-20T06:12:43.609Z,45.97
2023-01-20T06:15:13.059Z,43.95
2023-01-20T06:17:41.562Z,45.85
2023-01-20T06:20:11.418Z,48.78
2023-01-20T06:22:41.008Z,44.33
2023-01-20T06:25:09.978Z,49.85
2023-01-20T06:27:38.418Z,44.28
2023-01-20T06:30:07.551Z,48.85
2023-01-20T06:32:35.833Z,45.08
2023-01-20T06:35:04.014Z,48.90
2023-01-20T06:37:32.401Z,51.70
2023-01-20T06:40:02.150Z,49.50
2023-01-20T06:42:31.916Z,55.05
2023-01-20T06:45:00.147Z,52.03
2023-01-20T06:47:28.383Z,54.22
2023-01-20T06:49:56.627Z,53.47
2023-01-20T06:52:24.883Z,48.78
2023-01-20T06:54:53.176Z,53.33
2023-01-20T06:57:22.833Z,53.40
2023-01-20T06:59:51.021Z,50.13
2023-01-20T07:02:19.673Z,48.47
2023-01-20T07:04:47.933Z,44.50
2023-01-20T07:07:16.116Z,49.08
2023-01-20T07:09:44.755Z,47.08
2023-01-20T07:12:13.148Z,48.40
2023-01-20T07:14:42.691Z,49.42
2023-01-20T07:17:13.691Z,48.15
2023-01-20T07:19:41.961Z,46.40
2023-01-20T07:22:10.218Z,48.72
2023-01-20T07:24:38.800Z,42.95
2023-01-20T07:27:07.148Z,43.95
2023-01-20T07:29:35.312Z,45.90
2023-01-20T07:32:05.268Z,45.67
2023-01-20T07:34:33.483Z,41.88
2023-01-20T07:37:02.442Z,45.15
2023-01-20T07:39:31.286Z,40.28
2023-01-20T07:41:59.656Z,49.25
2023-01-20T07:44:27.916Z,43.72
2023-01-20T07:46:56.430Z,44.38
2023-01-20T07:49:26.065Z,38.80
2023-01-20T07:51:54.518Z,43.67
2023-01-20T07:54:23.228Z,38.30
2023-01-20T07:56:51.419Z,44.05
2023-01-20T07:59:19.889Z,38.80
2023-01-20T08:01:48.357Z,37.55
2023-01-20T08:04:18.040Z,40.47
2023-01-20T08:06:48.245Z,42.88
2023-01-20T08:09:16.946Z,41.15
2023-01-20T08:11:45.128Z,42.22
2023-01-20T08:14:13.382Z,40.97
2023-01-20T08:16:42.061Z,41.75
2023-01-20T08:19:10.330Z,39.40
2023-01-20T08:21:38.742Z,39.97
2023-01-20T08:24:09.051Z,35.13
2023-01-20T08:26:37.610Z,34.80
2023-01-20T08:29:08.034Z,32.33
2023-01-20T08:31:37.282Z,40.55
2023-01-20T08:34:06.491Z,33.22
2023-01-20T08:36:37.205Z,36.45
2023-01-20T08:39:09.382Z,35.53
2023-01-20T08:41:39.778Z,39.15
2023-01-20T08:44:09.089Z,32.55
2023-01-20T08:46:41.488Z,36.05
2023-01-20T08:49:11.038Z,33.13
2023-01-20T08:51:40.471Z,34.10
2023-01-20T08:54:10.566Z,36.70
2023-01-20T08:56:39.333Z,30.92
2023-01-20T08:59:08.441Z,30.35
2023-01-20T09:01:37.921Z,27.63
2023-01-20T09:04:07.625Z,28.45
2023-01-20T09:06:41.666Z,32.28
2023-01-20T09:09:12.526Z,24.65
2023-01-20T09:11:45.067Z,25.95
2023-01-20T09:14:13.328Z,21.65
2023-01-20T09:16:41.563Z,23.95
2023-01-20T09:19:10.029Z,25.08
2023-01-20T09:21:38.203Z,23.23
2023-01-20T09:24:07.523Z,25.52
2023-01-20T09:26:41.818Z,28.75
2023-01-20T09:29:12.904Z,23.30
2023-01-20T09:31:45.169Z,22.85
2023-01-20T09:34:19.674Z,26.58
2023-01-20T09:36:51.785Z,26.60
2023-01-20T09:39:38.203Z,25.10
2023-01-20T09:42:43.577Z,23.08
2023-01-20T09:45:25.024Z,26.52
2023-01-20T09:48:00.218Z,23.13
2023-01-20T09:50:55.096Z,21.33
2023-01-20T09:53:49.877Z,23.90
2023-01-20T09:56:20.586Z,23.92
2023-01-20T09:58:59.000Z,24.98
2023-01-20T10:01:32.796Z,20.75
2023-01-20T10:04:07.569Z,28.50
2023-01-20T10:06:41.479Z,25.17
2023-01-20T10:09:21.345Z,26.15
2023-01-20T10:11:51.949Z,25.77
2023-01-20T10:14:26.737Z,24.65
2023-01-20T10:17:00.733Z,22.15
2023-01-20T10:19:38.209Z,25.17
2023-01-20T10:22:12.637Z,28.15
2023-01-20T10:24:47.697Z,30.15
2023-01-20T10:27:15.892Z,24.83
2023-01-20T10:29:49.167Z,20.02
2023-01-20T10:32:26.159Z,21.30
2023-01-20T10:34:58.606Z,25.05
2023-01-20T10:37:27.648Z,22.33
2023-01-20T10:39:59.996Z,19.60
2023-01-20T10:42:29.311Z,21.98
2023-01-20T10:45:00.987Z,21.90
2023-01-20T10:47:40.423Z,22.90
2023-01-20T10:50:30.412Z,23.60
2023-01-20T10:53:22.633Z,21.90
2023-01-20T10:56:03.674Z,24.50
2023-01-20T10:58:33.798Z,18.85
2023-01-20T11:01:09.308Z,20.90
2023-01-20T11:03:42.183Z,28.30
2023-01-20T11:06:19.304Z,16.15
2023-01-20T11:08:47.806Z,17.30
2023-01-20T11:11:18.757Z,19.83
2023-01-20T11:13:47.651Z,17.77
2023-01-20T11:16:20.344Z,16.52
2023-01-20T11:18:58.437Z,14.90
2023-01-20T11:21:28.111Z,13.77
2023-01-20T11:23:57.073Z,15.15
2023-01-20T11:26:29.114Z,17.83
2023-01-20T11:28:59.712Z,20.92
2023-01-20T11:31:42.521Z,17.42
2023-01-20T11:34:24.302Z,15.65
2023-01-20T11:37:09.608Z,19.27
2023-01-20T11:39:43.869Z,16.40
2023-01-20T11:42:16.601Z,16.17
2023-01-20T11:44:45.481Z,16.97
2023-01-20T11:47:23.977Z,13.48
2023-01-20T11:50:25.015Z,14.30
2023-01-20T11:52:53.962Z,17.27
2023-01-20T11:55:24.229Z,17.00
2023-01-20T11:57:56.155Z,11.93
2023-01-20T12:00:39.113Z,17.52
2023-01-20T12:03:45.684Z,19.30
2023-01-20T12:06:18.564Z,19.40
2023-01-20T12:08:51.708Z,11.90
2023-01-20T12:11:24.612Z,11.88
2023-01-20T12:14:23.300Z,16.52
2023-01-20T12:17:06.784Z,16.88
2023-01-20T12:19:43.548Z,15.98
2023-01-20T12:22:15.438Z,14.52
2023-01-20T12:25:08.565Z,19.50
2023-01-20T12:27:44.006Z,15.85
2023-01-20T12:30:39.138Z,16.00
2023-01-20T12:33:30.666Z,16.65
2023-01-20T12:36:42.522Z,15.43
2023-01-20T12:39:25.846Z,15.35
2023-01-20T12:42:22.655Z,16.33
2023-01-20T12:44:54.806Z,15.55
2023-01-20T12:47:43.477Z,11.90
2023-01-20T12:50:23.526Z,14.85
2023-01-20T12:53:10.839Z,13.25
2023-01-20T12:55:56.960Z,16.00
2023-01-20T12:58:40.015Z,14.27
2023-01-20T13:01:44.009Z,13.27
2023-01-20T13:04:49.798Z,12.48
2023-01-20T13:07:46.058Z,16.25
2023-01-20T13:10:46.355Z,12.77
2023-01-20T13:13:26.516Z,13.52
2023-01-20T13:16:01.754Z,11.05
2023-01-20T13:18:41.857Z,10.63
2023-01-20T13:21:18.841Z,12.00
2023-01-20T13:23:48.337Z,14.90
2023-01-20T13:26:18.965Z,7.88
2023-01-20T13:28:54.158Z,11.30
2023-01-20T13:31:33.995Z,14.52
2023-01-20T13:34:32.639Z,15.23
2023-01-20T13:37:32.332Z,9.93
2023-01-20T13:40:01.244Z,12.18
2023-01-20T13:42:48.881Z,10.32
2023-01-20T13:45:23.798Z,10.75
2023-01-20T13:48:02.339Z,9.07
2023-01-20T13:50:33.658Z,12.23
2023-01-20T13:53:25.224Z,11.13
2023-01-20T13:56:02.059Z,9.02
2023-01-20T13:58:33.723Z,14.02
2023-01-20T14:01:04.380Z,12.40
2023-01-20T14:03:35.194Z,13.50
2023-01-20T14:06:06.094Z,11.27
2023-01-20T14:08:41.890Z,13.60
2023-01-20T14:11:15.106Z,18.88
2023-01-20T14:13:53.515Z,13.55
2023-01-20T14:16:23.932Z,9.32
2023-01-20T14:18:54.378Z,12.63
2023-01-20T14:21:24.310Z,15.98
2023-01-20T14:23:52.930Z,15.38
2023-01-20T14:26:26.218Z,12.73
2023-01-20T14:28:57.301Z,14.18
2023-01-20T14:31:35.507Z,15.18
2023-01-20T14:34:23.105Z,13.55
2023-01-20T14:36:52.872Z,13.30
2023-01-20T14:39:24.421Z,9.63
2023-01-20T14:41:54.496Z,17.15
2023-01-20T14:44:25.860Z,13.57
2023-01-20T14:46:56.980Z,17.98
2023-01-20T14:49:30.497Z,15.23
2023-01-20T14:51:59.456Z,16.15
2023-01-20T14:54:43.788Z,16.75
2023-01-20T14:57:21.230Z,13.43
2023-01-20T15:00:05.672Z,13.70
2023-01-20T15:02:36.206Z,12.13
2023-01-20T15:05:14.098Z,14.63
2023-01-20T15:07:43.028Z,13.10
2023-01-20T15:10:17.373Z,17.80
2023-01-20T15:12:55.985Z,17.25
2023-01-20T15:15:30.812Z,21.40
2023-01-20T15:18:22.256Z,16.75
2023-01-20T15:21:00.885Z,13.02
2023-01-20T15:23:38.403Z,19.85
2023-01-20T15:26:11.484Z,13.82
2023-01-20T15:28:44.272Z,15.48
2023-01-20T15:31:16.674Z,15.20
2023-01-20T15:33:45.885Z,17.35
2023-01-20T15:36:22.805Z,15.35
2023-01-20T15:38:51.920Z,12.52
2023-01-20T15:41:20.882Z,10.38
2023-01-20T15:43:51.442Z,13.75
2023-01-20T15:46:21.477Z,14.23
2023-01-20T15:48:49.831Z,13.80
2023-01-20T15:51:20.126Z,14.90
2023-01-20T15:53:48.951Z,13.50
2023-01-20T15:56:21.405Z,12.35
2023-01-20T15:58:50.635Z,12.63
2023-01-20T16:01:23.897Z,12.13
2023-01-20T16:03:52.927Z,14.55
2023-01-20T16:06:22.091Z,12.45
2023-01-20T16:08:51.520Z,16.90
2023-01-20T16:11:20.921Z,16.58
2023-01-20T16:13:49.663Z,16.20
2023-01-20T16:16:20.606Z,14.80
2023-01-20T16:18:51.052Z,16.02
2023-01-20T16:21:20.607Z,15.23
2023-01-20T16:23:48.797Z,17.02
2023-01-20T16:26:22.935Z,16.23
2023-01-20T16:28:51.486Z,19.58
2023-01-20T16:31:20.928Z,19.50
2023-01-20T16:33:51.000Z,20.17
2023-01-20T16:36:20.993Z,17.90
2023-01-20T16:38:50.064Z,20.55
2023-01-20T16:41:22.552Z,21.20
2023-01-20T16:43:51.962Z,18.98
2023-01-20T16:46:21.659Z,13.45
2023-01-20T16:48:52.030Z,13.88
2023-01-20T16:51:26.234Z,15.63
2023-01-20T16:53:55.092Z,15.77
2023-01-20T16:56:24.904Z,10.82
2023-01-20T16:58:55.007Z,11.80
2023-01-20T17:01:24.854Z,8.60
2023-01-20T17:03:55.885Z,9.63
2023-01-20T17:06:26.442Z,7.90
2023-01-20T17:08:56.458Z,8.73
2023-01-20T17:11:26.669Z,16.20
2023-01-20T17:13:56.204Z,5.30
2023-01-20T17:16:26.131Z,3.53
2023-01-20T17:18:58.537Z,4.28
2023-01-20T17:21:28.857Z,5.93
2023-01-20T17:23:58.685Z,4.18
2023-01-20T17:26:27.239Z,6.57
2023-01-20T17:28:56.460Z,6.07
2023-01-20T17:31:25.447Z,6.47
2023-01-20T17:33:55.486Z,15.38
2023-01-20T17:36:24.054Z,7.45
2023-01-20T17:38:52.256Z,5.82
2023-01-20T17:41:20.758Z,8.07
2023-01-20T17:43:49.300Z,7.50
2023-01-20T17:46:19.501Z,8.15
2023-01-20T17:48:48.723Z,8.63
2023-01-20T17:51:20.391Z,9.90
2023-01-20T17:53:49.587Z,6.93
2023-01-20T17:56:19.726Z,5.88
2023-01-20T17:58:48.358Z,8.65
2023-01-20T18:01:18.706Z,11.70
2023-01-20T18:03:48.610Z,9.27
2023-01-20T18:06:19.949Z,12.27
2023-01-20T18:08:52.475Z,13.75
2023-01-20T18:11:23.027Z,10.77
2023-01-20T18:13:52.689Z,10.15
2023-01-20T18:16:22.629Z,14.38
2023-01-20T18:18:51.550Z,11.55
2023-01-20T18:21:23.196Z,11.07
2023-01-20T18:23:52.773Z,9.25
2023-01-20T18:26:23.410Z,10.52
2023-01-20T18:28:55.443Z,11.98
2023-01-20T18:31:25.763Z,13.43
2023-01-20T18:33:56.048Z,12.38
2023-01-20T18:36:28.011Z,11.23
2023-01-20T18:38:57.821Z,9.75
2023-01-20T18:41:26.869Z,6.85
2023-01-20T18:43:55.325Z,8.57
2023-01-20T18:46:23.527Z,7.80
2023-01-20T18:48:54.590Z,7.10
2023-01-20T18:51:26.183Z,10.98
2023-01-20T18:53:57.200Z,11.18
2023-01-20T18:56:26.490Z,10.68
2023-01-20T18:58:55.885Z,12.77
2023-01-20T19:01:26.374Z,16.92
2023-01-20T19:03:54.636Z,19.08
2023-01-20T19:06:26.474Z,12.82
2023-01-20T19:08:56.442Z,15.10
2023-01-20T19:11:28.143Z,16.70
2023-01-20T19:13:57.055Z,13.38
2023-01-20T19:16:27.539Z,14.52
2023-01-20T19:18:57.497Z,15.27
2023-01-20T19:21:27.662Z,16.33
2023-01-20T19:24:01.084Z,17.70
2023-01-20T19:29:00.150Z,14.60
2023-01-20T19:31:28.511Z,14.45
2023-01-20T19:33:56.821Z,17.85
2023-01-20T19:36:26.652Z,18.67
2023-01-20T19:38:54.932Z,22.98
2023-01-20T19:41:25.801Z,21.63
2023-01-20T19:43:57.265Z,20.17
2023-01-20T19:46:27.315Z,23.02
2023-01-20T19:48:57.424Z,20.92
2023-01-20T19:51:28.008Z,22.52
2023-01-20T19:53:58.642Z,20.70
2023-01-20T19:56:27.915Z,16.35
2023-01-20T19:58:56.878Z,16.92
2023-01-20T20:01:28.564Z,15.80
2023-01-20T20:03:59.155Z,20.02
2023-01-20T20:06:30.764Z,18.23
2023-01-20T20:09:01.164Z,18.88
2023-01-20T20:11:30.302Z,19.30
2023-01-20T20:14:00.032Z,20.20
2023-01-20T20:16:30.621Z,24.80
2023-01-20T20:18:59.547Z,29.60
2023-01-20T20:21:29.965Z,32.08
2023-01-20T20:24:00.626Z,34.30
2023-01-20T20:26:31.227Z,34.28
2023-01-20T20:29:00.779Z,34.65
2023-01-20T20:31:30.092Z,32.25
2023-01-20T20:33:59.464Z,34.17
2023-01-20T20:36:31.326Z,34.55
2023-01-20T20:39:01.173Z,39.83
2023-01-20T20:41:31.778Z,40.72
2023-01-20T20:44:01.602Z,47.35
2023-01-20T20:46:30.707Z,45.00
2023-01-20T20:49:00.962Z,41.83
2023-01-20T20:51:32.402Z,48.05
2023-01-20T20:54:02.365Z,50.90
2023-01-20T20:56:32.669Z,51.28
2023-01-20T20:59:03.331Z,52.28
2023-01-20T21:01:34.227Z,55.33
2023-01-20T21:04:03.159Z,60.70
2023-01-20T21:06:33.814Z,63.97
2023-01-20T21:09:02.125Z,65.68
2023-01-20T21:11:31.023Z,61.38
2023-01-20T21:13:59.634Z,61.33
2023-01-20T21:16:28.244Z,64.07
2023-01-20T21:18:59.302Z,56.75
2023-01-20T21:21:29.076Z,62.88
2023-01-20T21:24:00.046Z,61.13
2023-01-20T21:26:30.727Z,57.13
2023-01-20T21:29:01.857Z,60.55
2023-01-20T21:31:31.855Z,59.40
2023-01-20T21:34:00.773Z,58.75
2023-01-20T21:36:31.326Z,56.28
2023-01-20T21:39:01.445Z,53.90
2023-01-20T21:41:29.680Z,51.92
2023-01-20T21:44:15.656Z,51.45
2023-01-20T21:46:44.090Z,45.75
2023-01-20T21:49:29.764Z,42.17
2023-01-20T21:52:15.793Z,41.47
2023-01-20T21:54:45.993Z,40.28
2023-01-20T21:57:14.569Z,36.03
2023-01-20T21:59:43.435Z,31.17
2023-01-20T22:02:14.335Z,33.42
2023-01-20T22:04:43.234Z,33.55
2023-01-20T22:07:11.736Z,35.80
2023-01-20T22:09:40.291Z,34.33
2023-01-20T22:12:10.142Z,35.40
2023-01-20T22:14:38.431Z,34.00
2023-01-20T22:17:07.640Z,34.42
2023-01-20T22:19:35.873Z,33.80
2023-01-20T22:22:04.718Z,32.10
2023-01-20T22:24:33.112Z,34.10
2023-01-20T22:27:02.484Z,33.20
2023-01-20T22:29:32.091Z,34.80
2023-01-20T22:32:02.658Z,35.38
2023-01-20T22:34:30.931Z,32.17
2023-01-20T22:37:00.552Z,35.58
2023-01-20T22:39:29.434Z,36.25
2023-01-20T22:41:57.642Z,34.15
2023-01-20T22:44:25.871Z,36.42
2023-01-20T22:46:56.209Z,37.72
2023-01-20T22:49:24.530Z,39.00
2023-01-20T22:51:55.851Z,38.67
2023-01-20T22:54:24.166Z,38.33
2023-01-20T22:56:52.353Z,43.45
2023-01-20T22:59:20.740Z,44.47
2023-01-20T23:01:49.242Z,44.08
2023-01-20T23:04:18.866Z,43.97
2023-01-20T23:06:47.192Z,48.08
2023-01-20T23:09:15.612Z,46.03
2023-01-20T23:11:43.856Z,46.53
2023-01-20T23:14:13.564Z,49.22
2023-01-20T23:16:43.262Z,50.33
2023-01-20T23:19:12.591Z,47.08
2023-01-20T23:21:42.304Z,51.08
2023-01-20T23:24:10.784Z,51.78
2023-01-20T23:26:39.030Z,51.97
2023-01-20T23:29:07.323Z,46.80
2023-01-20T23:31:35.811Z,46.45
2023-01-20T23:34:04.154Z,53.55
2023-01-20T23:36:32.725Z,51.75
2023-01-20T23:39:02.531Z,51.45
2023-01-20T23:41:30.805Z,54.70
2023-01-20T23:43:59.253Z,55.55
2023-01-20T23:46:27.795Z,52.60
2023-01-20T23:48:56.145Z,54.85
2023-01-20T23:51:24.665Z,53.63
2023-01-20T23:53:53.158Z,50.53
2023-01-20T23:56:24.705Z,54.47
2023-01-20T23:58:53.410Z,49.20
